createdAt,value
2022-08-07T00:02:40.755Z,160.90141
2022-08-07T00:07:45.307Z,160.90141
2022-08-07T00:12:57.614Z,160.90141
2022-08-07T00:17:59.128Z,160.90141
2022-08-07T00:23:00.174Z,160.14035
2022-08-07T00:28:01.695Z,160.90141
2022-08-07T00:33:03.748Z,160.14035
2022-08-07T00:38:04.676Z,160.90141
2022-08-07T00:43:10.034Z,160.90141
2022-08-07T00:48:12.277Z,161.66784
2022-08-07T00:53:13.650Z,162.43972
2022-08-07T00:58:18.416Z,162.43972
2022-08-07T01:03:19.339Z,162.43972
2022-08-07T01:09:01.030Z,162.43972
2022-08-07T01:14:02.530Z,162.43972
2022-08-07T01:19:03.452Z,162.43972
2022-08-07T01:24:04.848Z,162.43972
2022-08-07T01:29:05.773Z,162.43972
2022-08-07T01:34:06.681Z,162.43972
2022-08-07T01:39:09.836Z,163.21708
2022-08-07T01:44:11.470Z,163.21708
2022-08-07T01:49:13.975Z,163.21708
2022-08-07T01:54:32.943Z,163.21708
2022-08-07T01:59:38.212Z,164.0
2022-08-07T02:04:55.866Z,164.0
2022-08-07T02:09:58.461Z,164.0
2022-08-07T02:15:00.651Z,164.0
2022-08-07T02:20:06.624Z,164.0
2022-08-07T02:25:17.408Z,164.0
2022-08-07T02:30:19.319Z,164.0
2022-08-07T02:35:20.504Z,164.78853
2022-08-07T02:41:33.316Z,164.78853
2022-08-07T02:46:37.969Z,165.58273
2022-08-07T02:51:51.905Z,165.58273
2022-08-07T02:56:53.342Z,165.58273
2022-08-07T03:01:55.355Z,165.58273
2022-08-07T03:06:56.555Z,166.38267
2022-08-07T03:12:02.628Z,166.38267
2022-08-07T03:17:04.543Z,167.18841
2022-08-07T03:32:06.749Z,167.18841
2022-08-07T03:37:12.377Z,167.18841
2022-08-07T03:42:13.671Z,167.18841
2022-08-07T03:47:14.825Z,167.18841
2022-08-07T03:52:22.270Z,167.18841
2022-08-07T03:58:08.859Z,167.18841
2022-08-07T04:04:06.994Z,167.18841
2022-08-07T04:09:15.081Z,167.18841
2022-08-07T04:14:38.915Z,168.0
2022-08-07T04:19:52.846Z,167.18841
2022-08-07T04:24:55.688Z,167.18841
2022-08-07T04:30:02.760Z,167.18841
2022-08-07T04:35:06.324Z,166.38267
2022-08-07T04:40:12.218Z,165.58273
2022-08-07T04:45:17.738Z,165.58273
2022-08-07T04:50:23.863Z,166.38267
2022-08-07T04:58:15.327Z,165.58273
2022-08-07T05:03:59.715Z,165.58273
2022-08-07T05:14:56.077Z,164.0
2022-08-07T05:25:00.641Z,164.0
2022-08-07T05:30:02.089Z,164.0
2022-08-07T05:35:03.081Z,164.0
2022-08-07T05:40:14.055Z,163.21708
2022-08-07T05:45:28.269Z,162.43972
2022-08-07T05:50:48.273Z,164.0
2022-08-07T05:56:02.390Z,163.21708
2022-08-07T06:01:05.894Z,162.43972
2022-08-07T06:06:09.391Z,160.14035
2022-08-07T06:11:10.591Z,160.14035
2022-08-07T06:16:13.518Z,160.90141
2022-08-07T06:22:15.415Z,160.90141
2022-08-07T06:27:43.911Z,159.38462
2022-08-07T06:33:00.562Z,160.14035
2022-08-07T06:38:01.883Z,159.38462
2022-08-07T06:43:02.816Z,159.38462
2022-08-07T06:48:08.338Z,158.63415
2022-08-07T06:53:49.272Z,158.63415
2022-08-07T07:00:28.499Z,157.14879
2022-08-07T07:06:04.789Z,154.9589
2022-08-07T07:11:13.987Z,157.88889
2022-08-07T07:17:10.640Z,160.90141
2022-08-07T07:22:36.805Z,159.38462
2022-08-07T07:29:57.078Z,160.90141
2022-08-07T07:35:10.518Z,160.14035
2022-08-07T07:40:15.155Z,158.63415
2022-08-07T07:45:16.393Z,158.63415
2022-08-07T07:50:33.944Z,158.63415
2022-08-07T07:55:54.476Z,157.88889
2022-08-07T08:00:55.606Z,157.88889
2022-08-07T08:05:56.526Z,160.90141
2022-08-07T08:10:57.908Z,157.88889
2022-08-07T08:16:00.764Z,156.41379
2022-08-07T08:21:02.572Z,155.68385
2022-08-07T08:26:06.673Z,154.9589
2022-08-07T08:31:08.193Z,155.68385
2022-08-07T08:36:16.677Z,157.14879
2022-08-07T08:41:17.605Z,157.88889
2022-08-07T08:46:20.496Z,156.41379
2022-08-07T08:56:24.663Z,155.68385
2022-08-07T09:01:29.622Z,154.23891
2022-08-07T09:06:42.874Z,152.10811
2022-08-07T09:11:53.279Z,152.81356
2022-08-07T09:16:57.770Z,154.9589
2022-08-07T09:22:22.873Z,154.9589
2022-08-07T09:30:04.272Z,152.10811
2022-08-07T09:36:05.187Z,157.14879
2022-08-07T09:41:07.101Z,152.81356
2022-08-07T09:47:24.875Z,153.52381
2022-08-07T09:52:52.493Z,150.71141
2022-08-07T09:57:54.953Z,154.23891
2022-08-07T10:02:56.331Z,155.68385
2022-08-07T10:07:57.765Z,151.40741
2022-08-07T10:12:59.433Z,155.68385
2022-08-07T10:18:02.778Z,154.23891
2022-08-07T10:23:04.065Z,152.81356
2022-08-07T10:28:08.745Z,154.23891
2022-08-07T10:33:15.126Z,153.52381
2022-08-07T10:38:35.087Z,153.52381
2022-08-07T10:43:42.355Z,151.40741
2022-08-07T10:48:44.049Z,152.81356
2022-08-07T10:53:45.157Z,154.23891
2022-08-07T10:58:47.411Z,156.41379
2022-08-07T11:03:54.893Z,157.14879
2022-08-07T11:08:59.233Z,153.52381
2022-08-07T11:14:43.504Z,152.81356
2022-08-07T11:19:47.747Z,152.10811
2022-08-07T11:24:48.630Z,153.52381
2022-08-07T11:29:53.514Z,152.81356
2022-08-07T11:35:11.414Z,151.40741
2022-08-07T11:40:19.198Z,152.81356
2022-08-07T11:45:23.766Z,152.81356
2022-08-07T11:50:36.376Z,156.41379
2022-08-07T11:56:15.743Z,154.23891
2022-08-07T12:01:58.603Z,153.52381
2022-08-07T12:07:10.098Z,150.71141
2022-08-07T12:12:21.538Z,147.30033
2022-08-07T12:17:25.440Z,147.97351
2022-08-07T12:22:37.767Z,151.40741
2022-08-07T12:28:08.624Z,149.33333
2022-08-07T12:33:18.813Z,146.63158
2022-08-07T12:38:36.776Z,143.35275
2022-08-07T12:44:04.498Z,143.35275
2022-08-07T12:49:10.219Z,145.96721
2022-08-07T12:54:38.326Z,144.65147
2022-08-07T12:59:54.404Z,149.33333
2022-08-07T13:05:01.095Z,144.0
2022-08-07T13:10:37.493Z,147.30033
2022-08-07T13:15:41.917Z,141.4359
2022-08-07T13:20:42.902Z,145.30719
2022-08-07T13:25:45.541Z,140.80511
2022-08-07T13:30:53.425Z,135.90031
2022-08-07T13:36:05.723Z,137.10345
2022-08-07T13:41:06.982Z,133.53846
2022-08-07T13:46:22.046Z,133.53846
2022-08-07T13:52:22.745Z,132.3792
2022-08-07T13:57:37.764Z,131.80488
2022-08-07T14:02:51.077Z,138.93671
2022-08-07T14:08:00.641Z,138.32177
2022-08-07T14:13:02.919Z,134.12346
2022-08-07T14:18:24.492Z,130.10272
2022-08-07T14:23:59.082Z,128.98498
2022-08-07T14:30:02.996Z,130.10272
2022-08-07T14:35:07.942Z,132.3792
2022-08-07T14:40:16.828Z,132.3792
2022-08-07T14:45:46.842Z,131.23404
2022-08-07T14:50:51.003Z,132.3792
2022-08-07T14:55:56.080Z,131.80488
2022-08-07T15:00:57.660Z,131.23404
2022-08-07T15:06:03.520Z,131.23404
2022-08-07T15:11:05.673Z,130.10272
2022-08-07T15:16:11.218Z,132.3792
2022-08-07T15:21:58.540Z,130.10272
2022-08-07T15:27:05.516Z,130.10272
2022-08-07T15:32:06.532Z,130.66667
2022-08-07T15:37:12.745Z,132.95706
2022-08-07T15:42:46.821Z,133.53846
2022-08-07T15:48:01.074Z,131.80488
2022-08-07T15:53:02.929Z,133.53846
2022-08-07T15:58:06.024Z,137.71069
2022-08-07T16:03:22.205Z,135.90031
2022-08-07T16:08:48.216Z,137.10345
2022-08-07T16:13:58.983Z,138.32177
2022-08-07T16:19:01.545Z,137.71069
2022-08-07T16:24:04.286Z,137.10345
2022-08-07T16:30:06.515Z,137.71069
2022-08-07T16:35:56.859Z,138.93671
2022-08-07T16:41:02.181Z,139.55556
2022-08-07T16:46:33.471Z,140.17834
2022-08-07T16:52:49.152Z,141.4359
2022-08-07T16:58:02.554Z,141.4359
2022-08-07T17:03:09.563Z,142.07074
2022-08-07T17:08:10.478Z,142.70968
2022-08-07T17:13:12.343Z,144.0
2022-08-07T17:18:18.266Z,144.0
2022-08-07T17:23:19.245Z,144.65147
2022-08-07T17:28:20.198Z,145.30719
2022-08-07T17:34:09.248Z,145.30719
2022-08-07T17:39:58.187Z,145.96721
2022-08-07T17:46:53.319Z,113.69697
2022-08-07T17:52:00.399Z,143.35275
2022-08-07T17:57:02.335Z,144.65147
2022-08-07T18:02:23.212Z,145.30719
2022-08-07T18:07:28.510Z,145.96721
2022-08-07T18:12:35.376Z,146.63158
2022-08-07T18:18:33.142Z,147.30033
2022-08-07T18:26:02.872Z,147.97351
2022-08-07T18:31:06.343Z,147.97351
2022-08-07T18:36:09.658Z,148.65116
2022-08-07T18:41:17.026Z,149.33333
2022-08-07T18:46:25.572Z,149.33333
2022-08-07T18:52:35.052Z,150.02007
2022-08-07T18:57:59.486Z,150.71141
2022-08-07T19:03:00.748Z,150.02007
2022-08-07T19:08:03.974Z,150.71141
2022-08-07T19:13:10.123Z,151.40741
2022-08-07T19:18:12.811Z,151.40741
2022-08-07T19:28:57.819Z,151.40741
2022-08-07T19:36:00.101Z,152.10811
2022-08-07T19:41:01.084Z,151.40741
2022-08-07T19:46:07.890Z,152.10811
2022-08-07T19:51:19.867Z,152.81356
2022-08-07T19:57:52.192Z,152.81356
2022-08-07T20:08:05.246Z,152.81356
2022-08-07T20:13:06.357Z,152.81356
2022-08-07T20:23:40.683Z,152.81356
2022-08-07T20:28:43.134Z,152.81356
2022-08-07T20:33:44.022Z,153.52381
2022-08-07T20:38:53.358Z,153.52381
2022-08-07T20:44:02.722Z,153.52381
2022-08-07T20:49:58.374Z,154.23891
2022-08-07T20:55:02.953Z,154.23891
2022-08-07T21:00:08.325Z,154.23891
2022-08-07T21:05:16.287Z,154.9589
2022-08-07T21:10:17.634Z,154.9589
2022-08-07T21:15:58.348Z,154.23891
2022-08-07T21:26:03.280Z,154.23891
2022-08-07T21:36:11.850Z,154.23891
2022-08-07T21:41:37.975Z,154.9589
2022-08-07T21:46:53.482Z,154.9589
2022-08-07T21:51:55.837Z,155.68385
2022-08-07T21:56:57.937Z,155.68385
2022-08-07T22:02:11.585Z,156.41379
2022-08-07T22:07:14.330Z,156.41379
2022-08-07T22:12:15.486Z,157.14879
2022-08-07T22:17:20.061Z,157.14879
2022-08-07T22:22:28.852Z,157.88889
2022-08-07T22:27:33.987Z,157.88889
2022-08-07T22:33:09.459Z,157.88889
2022-08-07T22:38:10.496Z,158.63415
2022-08-07T22:43:11.411Z,158.63415
2022-08-07T22:48:31.725Z,158.63415
2022-08-07T22:54:05.661Z,158.63415
2022-08-07T22:59:09.354Z,158.63415
2022-08-07T23:04:10.805Z,158.63415
2022-08-07T23:10:01.103Z,159.38462
2022-08-07T23:16:06.956Z,158.63415
2022-08-07T23:21:09.845Z,159.38462
2022-08-07T23:26:10.735Z,159.38462
2022-08-07T23:36:17.382Z,159.38462
2022-08-07T23:44:14.648Z,160.14035
2022-08-07T23:49:15.796Z,159.38462
2022-08-07T23:54:20.025Z,160.14035
